Time;durP1;ratioP1;P1;durP2;ratioP2;P2;SDS_P1;SDS_P2;PMS_P1;PMS_P2;Temp;Humidity;BMP_temperature;BMP_pressure;BME280_temperature;BME280_humidity;BME280_pressure;Samples;Min_cycle;Max_cycle;Signal;HPM_P1;HPM_P2
2022/12/29 00:02:15;;;;;;;6.22;5.05;;;11.00;99.90;;;;;;5095118;28;20040;-77
2022/12/29 00:04:41;;;;;;;7.68;5.93;;;11.00;99.90;;;;;;5095079;28;20434;-76
2022/12/29 00:07:07;;;;;;;9.07;5.20;;;10.90;99.90;;;;;;5094958;28;20104;-76
2022/12/29 00:09:34;;;;;;;7.80;5.72;;;10.80;99.90;;;;;;5094189;28;20066;-77
2022/12/29 00:12:01;;;;;;;5.97;3.78;;;10.80;99.90;;;;;;5102796;28;20048;-79
2022/12/29 00:17:11;;;;;;;6.90;5.88;;;10.90;99.90;;;;;;5119445;27;20044;-78
2022/12/29 00:36:36;;;;;;;8.27;5.75;;;11.00;99.90;;;;;;5102407;28;20040;-77
2022/12/29 00:44:50;;;;;;;8.52;6.10;;;10.70;99.90;;;;;;5119240;27;20048;-77
2022/12/29 00:47:16;;;;;;;10.10;6.80;;;11.10;99.90;;;;;;5072410;28;20050;-77
2022/12/29 00:49:42;;;;;;;9.90;6.72;;;10.80;99.90;;;;;;5076618;28;20066;-76
2022/12/29 00:52:10;;;;;;;8.77;7.07;;;11.00;99.90;;;;;;5077447;28;20146;-77
2022/12/29 00:54:38;;;;;;;7.30;5.68;;;10.90;99.90;;;;;;5094399;28;20044;-76
2022/12/29 00:57:06;;;;;;;8.90;6.07;;;10.90;99.90;;;;;;5060633;28;20142;-76
2022/12/29 00:59:34;;;;;;;7.20;6.07;;;11.10;99.90;;;;;;5075995;28;20088;-76
2022/12/29 01:01:59;;;;;;;8.18;6.05;;;10.90;99.90;;;;;;5094180;28;20101;-75
2022/12/29 01:04:26;;;;;;;7.25;6.03;;;11.00;99.90;;;;;;5103236;28;20422;-77
2022/12/29 01:06:52;;;;;;;7.70;6.50;;;11.00;99.90;;;;;;5113595;28;20042;-76
2022/12/29 01:12:04;;;;;;;9.00;6.53;;;11.10;99.90;;;;;;5114315;28;20400;-79
2022/12/29 01:14:30;;;;;;;7.60;6.13;;;11.10;99.90;;;;;;5097213;28;20128;-77
2022/12/29 01:16:56;;;;;;;9.10;6.25;;;11.20;99.90;;;;;;5093002;28;20479;-77
2022/12/29 01:19:22;;;;;;;8.48;6.18;;;11.20;99.90;;;;;;5093896;28;20047;-77
2022/12/29 01:21:48;;;;;;;9.43;6.10;;;11.10;99.90;;;;;;5114238;28;20055;-81
2022/12/29 01:24:16;;;;;;;8.02;6.05;;;11.10;99.90;;;;;;5114026;28;20512;-83
2022/12/29 01:26:41;;;;;;;8.50;6.00;;;11.20;99.90;;;;;;5097254;28;20056;-78
2022/12/29 01:29:07;;;;;;;6.75;4.93;;;11.20;99.90;;;;;;5113875;28;20172;-78
2022/12/29 01:31:33;;;;;;;6.20;4.55;;;11.20;99.90;;;;;;5096856;28;20047;-79
2022/12/29 01:33:58;;;;;;;7.75;5.35;;;11.20;99.90;;;;;;5097065;28;20483;-82
2022/12/29 01:36:25;;;;;;;6.88;5.15;;;11.10;99.90;;;;;;5079653;28;20047;-76
2022/12/29 01:38:50;;;;;;;6.53;5.32;;;11.20;99.90;;;;;;5092788;28;20572;-73
2022/12/29 01:41:16;;;;;;;8.63;5.25;;;11.20;99.90;;;;;;5093200;28;20094;-76
2022/12/29 01:43:46;;;;;;;6.40;5.03;;;11.30;99.90;;;;;;5093546;28;20044;-75
2022/12/29 01:46:29;;;;;;;6.80;5.63;;;11.30;99.90;;;;;;5093253;28;20043;-75
2022/12/29 01:49:21;;;;;;;7.13;5.68;;;11.20;99.90;;;;;;5093280;28;20127;-75
2022/12/29 01:51:57;;;;;;;7.47;5.65;;;11.30;99.90;;;;;;5093276;28;20055;-75
2022/12/29 01:54:27;;;;;;;9.48;5.85;;;11.20;99.90;;;;;;5093151;28;20054;-75
2022/12/29 01:56:56;;;;;;;7.97;5.72;;;11.20;99.90;;;;;;5075920;28;20044;-76
2022/12/29 01:59:27;;;;;;;7.28;6.15;;;11.10;99.90;;;;;;5092831;28;20252;-76
2022/12/29 02:01:54;;;;;;;6.68;4.65;;;11.20;99.90;;;;;;5093097;28;20051;-78
2022/12/29 02:04:22;;;;;;;5.97;4.90;;;11.20;99.90;;;;;;5092761;28;20507;-79
2022/12/29 02:06:57;;;;;;;5.78;4.85;;;11.20;99.90;;;;;;5092932;28;20048;-77
2022/12/29 02:09:23;;;;;;;5.07;4.57;;;11.20;99.90;;;;;;5075552;28;20048;-76
2022/12/29 02:11:49;;;;;;;6.15;4.47;;;11.20;99.90;;;;;;5092981;28;20455;-76
2022/12/29 02:14:15;;;;;;;6.47;4.78;;;11.10;99.90;;;;;;5075715;28;20135;-78
2022/12/29 02:17:08;;;;;;;5.65;4.80;;;11.20;99.90;;;;;;5059202;28;20079;-77
2022/12/29 02:20:11;;;;;;;5.50;4.22;;;11.20;99.90;;;;;;5092402;28;20047;-77
2022/12/29 02:23:05;;;;;;;6.60;4.78;;;11.30;99.90;;;;;;5092083;28;20081;-81
2022/12/29 02:26:18;;;;;;;6.18;4.80;;;11.30;99.90;;;;;;5092459;28;20044;-76
2022/12/29 02:29:14;;;;;;;6.47;4.53;;;11.40;99.90;;;;;;5050764;28;20048;-77
2022/12/29 02:31:44;;;;;;;6.00;4.70;;;11.40;99.90;;;;;;5075438;28;20056;-78
2022/12/29 02:34:25;;;;;;;5.63;4.38;;;11.40;99.90;;;;;;5092487;28;20153;-76
2022/12/29 02:37:08;;;;;;;5.55;4.10;;;11.40;99.90;;;;;;5075590;28;20073;-75
2022/12/29 02:40:05;;;;;;;5.38;4.47;;;11.40;99.90;;;;;;5092144;28;20044;-76
2022/12/29 02:42:46;;;;;;;3.92;3.38;;;11.40;99.90;;;;;;5092159;28;20495;-77
2022/12/29 02:45:20;;;;;;;4.50;3.63;;;11.40;99.90;;;;;;5092288;28;20051;-77
2022/12/29 02:47:48;;;;;;;7.00;4.45;;;11.40;99.90;;;;;;5074980;28;20495;-74
2022/12/29 02:50:20;;;;;;;5.32;4.00;;;11.40;99.90;;;;;;5092342;28;20048;-78
2022/12/29 02:53:02;;;;;;;5.03;3.25;;;11.40;99.90;;;;;;5092094;28;20040;-86
2022/12/29 02:55:27;;;;;;;7.00;3.80;;;11.40;99.90;;;;;;5091834;28;20090;-80
2022/12/29 02:58:08;;;;;;;6.70;4.43;;;11.30;99.90;;;;;;5092105;28;20092;-76
2022/12/29 03:00:43;;;;;;;5.45;3.92;;;11.20;99.90;;;;;;5092333;28;20059;-78
2022/12/29 03:03:22;;;;;;;5.07;4.03;;;11.20;99.90;;;;;;5075599;28;20048;-76
2022/12/29 03:05:57;;;;;;;4.22;3.80;;;11.20;99.90;;;;;;5092164;28;20048;-79
2022/12/29 03:08:39;;;;;;;6.70;4.10;;;11.20;99.90;;;;;;5092068;28;20044;-80
2022/12/29 03:12:07;;;;;;;;;;;11.10;99.90;;;;;;5075783;28;20139;-76
2022/12/29 03:17:01;;;;;;;4.40;3.17;;;11.30;99.90;;;;;;5091938;28;20322;-77
2022/12/29 03:19:32;;;;;;;7.28;3.22;;;11.20;99.90;;;;;;5092210;28;20051;-79
2022/12/29 03:25:10;;;;;;;3.20;2.58;;;11.30;99.90;;;;;;5091905;28;19928;-78
2022/12/29 03:27:40;;;;;;;4.20;2.75;;;11.40;99.90;;;;;;5091850;28;20458;-77
2022/12/29 03:30:08;;;;;;;2.67;2.40;;;11.30;99.90;;;;;;5091560;28;20649;-76
2022/12/29 03:32:54;;;;;;;2.97;1.80;;;11.30;99.90;;;;;;5075074;28;20048;-77
2022/12/29 03:35:24;;;;;;;4.32;2.25;;;11.30;99.90;;;;;;5075238;28;20094;-81
2022/12/29 03:37:59;;;;;;;2.15;1.95;;;11.40;99.90;;;;;;5091907;28;20052;-80
2022/12/29 03:40:27;;;;;;;2.28;1.67;;;11.30;99.90;;;;;;5092089;28;20502;-80
2022/12/29 03:42:54;;;;;;;1.17;1.08;;;11.40;99.90;;;;;;5074923;28;20086;-77
2022/12/29 03:45:20;;;;;;;3.28;2.10;;;11.40;99.90;;;;;;5091610;28;20097;-75
2022/12/29 03:47:46;;;;;;;2.55;1.75;;;11.40;99.90;;;;;;5091565;28;20044;-80
2022/12/29 03:50:13;;;;;;;2.35;1.60;;;11.40;99.90;;;;;;5091785;28;20044;-76
2022/12/29 03:52:38;;;;;;;3.55;1.83;;;11.50;99.90;;;;;;5074408;28;20070;-79
2022/12/29 03:55:04;;;;;;;1.90;1.48;;;11.50;99.90;;;;;;5058382;28;20044;-79
2022/12/29 03:57:30;;;;;;;3.13;1.60;;;11.40;99.90;;;;;;5058354;28;20391;-78
2022/12/29 03:59:56;;;;;;;2.38;1.67;;;11.30;99.90;;;;;;5074501;28;20044;-75
2022/12/29 04:02:22;;;;;;;4.20;2.03;;;11.30;99.90;;;;;;5074935;28;20047;-76
2022/12/29 04:04:47;;;;;;;2.05;1.25;;;11.30;99.90;;;;;;5091550;28;20056;-77
2022/12/29 04:07:13;;;;;;;3.60;1.73;;;11.40;99.90;;;;;;5080464;28;20047;-75
2022/12/29 04:09:39;;;;;;;3.70;1.65;;;11.30;99.90;;;;;;5091255;28;20131;-78
2022/12/29 04:12:05;;;;;;;2.70;1.73;;;11.30;99.90;;;;;;5091640;28;20055;-75
2022/12/29 04:14:30;;;;;;;3.63;1.65;;;11.20;99.90;;;;;;5091706;28;20476;-76
2022/12/29 04:16:56;;;;;;;2.95;1.88;;;11.20;99.90;;;;;;5091528;28;20102;-77
2022/12/29 04:19:22;;;;;;;3.55;1.85;;;11.20;99.90;;;;;;5074754;28;20489;-77
2022/12/29 04:21:47;;;;;;;2.22;1.80;;;11.30;99.90;;;;;;5074510;28;20052;-76
2022/12/29 04:24:13;;;;;;;2.30;1.67;;;11.30;99.90;;;;;;5074648;28;20078;-80
2022/12/29 04:26:39;;;;;;;6.25;1.70;;;11.30;99.90;;;;;;5091436;28;20507;-78
2022/12/29 04:29:05;;;;;;;2.65;1.67;;;11.40;99.90;;;;;;5074391;28;20044;-78
2022/12/29 04:31:30;;;;;;;3.05;1.42;;;11.40;99.90;;;;;;5074747;28;20490;-76
2022/12/29 04:33:57;;;;;;;6.10;1.73;;;11.30;99.90;;;;;;5091259;28;20095;-77
2022/12/29 04:36:23;;;;;;;1.30;1.20;;;11.30;99.90;;;;;;5074712;28;20172;-77
2022/12/29 04:38:49;;;;;;;3.22;1.55;;;11.20;99.90;;;;;;5091289;28;20451;-77
2022/12/29 04:41:14;;;;;;;3.17;1.50;;;11.20;99.90;;;;;;5057927;28;20131;-77
2022/12/29 04:43:40;;;;;;;4.53;1.70;;;11.30;99.90;;;;;;5093793;28;20078;-78
2022/12/29 04:46:06;;;;;;;2.88;1.02;;;11.30;99.90;;;;;;5077889;28;20058;-77
2022/12/29 04:48:32;;;;;;;3.13;1.08;;;11.30;99.90;;;;;;5077855;28;20075;-82
2022/12/29 04:50:57;;;;;;;2.78;1.17;;;11.30;99.90;;;;;;5094678;28;20098;-78
2022/12/29 04:53:23;;;;;;;5.45;1.20;;;11.30;99.90;;;;;;5094963;28;20515;-77
2022/12/29 04:55:50;;;;;;;2.40;1.15;;;11.30;99.90;;;;;;5077491;28;20047;-79
2022/12/29 04:58:17;;;;;;;1.52;0.98;;;11.30;99.90;;;;;;5094897;28;20044;-80
2022/12/29 05:00:42;;;;;;;4.28;0.80;;;11.30;99.90;;;;;;5094712;28;20036;-78
2022/12/29 05:03:08;;;;;;;2.97;0.90;;;11.20;99.90;;;;;;5077564;28;20044;-77
2022/12/29 05:05:34;;;;;;;2.60;0.60;;;11.10;99.90;;;;;;5077748;28;20476;-78
2022/12/29 05:07:59;;;;;;;2.35;1.00;;;11.10;99.90;;;;;;5077225;28;20123;-76
2022/12/29 05:10:25;;;;;;;3.20;1.20;;;11.10;99.90;;;;;;5077192;28;20052;-76
2022/12/29 05:12:51;;;;;;;2.30;1.13;;;11.10;99.90;;;;;;5077359;28;20063;-79
2022/12/29 05:15:17;;;;;;;2.28;1.00;;;11.00;99.90;;;;;;5077663;28;20063;-77
2022/12/29 05:17:42;;;;;;;6.85;1.50;;;11.10;99.90;;;;;;5094235;28;20134;-75
2022/12/29 05:20:09;;;;;;;3.40;1.40;;;11.00;99.90;;;;;;5077275;28;20082;-75
2022/12/29 05:22:35;;;;;;;5.60;1.40;;;11.00;99.90;;;;;;5077479;28;20495;-75
2022/12/29 05:25:01;;;;;;;6.10;1.42;;;11.00;99.90;;;;;;5077221;28;20048;-75
2022/12/29 05:27:26;;;;;;;6.18;1.67;;;10.90;99.90;;;;;;5077102;28;20061;-80
2022/12/29 05:29:52;;;;;;;5.32;1.70;;;10.80;99.90;;;;;;5077105;28;20438;-77
2022/12/29 05:32:18;;;;;;;6.18;2.08;;;10.70;99.90;;;;;;5094006;28;20040;-76
2022/12/29 05:34:44;;;;;;;5.85;1.73;;;10.70;99.90;;;;;;5077180;28;20060;-76
2022/12/29 05:37:09;;;;;;;6.57;1.80;;;10.70;99.90;;;;;;5093406;28;20043;-75
2022/12/29 05:39:35;;;;;;;5.30;1.77;;;10.70;99.90;;;;;;5093866;28;20495;-74
2022/12/29 05:42:01;;;;;;;6.97;2.13;;;10.50;99.90;;;;;;5076357;28;20047;-74
2022/12/29 05:44:26;;;;;;;3.40;1.80;;;10.50;99.90;;;;;;5094010;28;20044;-75
2022/12/29 05:46:52;;;;;;;4.47;1.25;;;10.50;99.90;;;;;;5093773;28;20040;-80
2022/12/29 05:49:18;;;;;;;7.45;1.48;;;10.50;99.90;;;;;;5093542;28;20044;-78
2022/12/29 05:51:44;;;;;;;5.22;1.75;;;10.40;99.90;;;;;;5076800;28;20044;-77
2022/12/29 05:54:09;;;;;;;7.32;1.60;;;10.40;99.90;;;;;;5090801;28;20497;-77
2022/12/29 05:56:35;;;;;;;7.63;1.67;;;10.40;99.90;;;;;;4739161;28;10000429;-76
2022/12/29 05:59:01;;;;;;;7.07;2.28;;;10.40;99.90;;;;;;5090974;28;20044;-79
2022/12/29 06:01:27;;;;;;;3.05;1.20;;;10.30;99.90;;;;;;5091922;28;20476;-76
2022/12/29 06:03:52;;;;;;;8.35;2.00;;;10.30;99.90;;;;;;5092488;28;20131;-77
2022/12/29 06:06:18;;;;;;;8.27;1.55;;;10.40;99.90;;;;;;5110272;28;20407;-79
2022/12/29 06:08:44;;;;;;;5.72;1.73;;;10.30;99.90;;;;;;5112413;28;20131;-77
2022/12/29 06:11:09;;;;;;;7.60;1.10;;;10.30;99.90;;;;;;5096406;28;20052;-75
2022/12/29 06:13:35;;;;;;;6.43;1.25;;;10.30;99.90;;;;;;5096684;28;20053;-81
2022/12/29 06:16:01;;;;;;;5.15;1.35;;;10.30;99.90;;;;;;5096366;28;20595;-76
2022/12/29 06:18:27;;;;;;;3.60;1.45;;;10.40;99.90;;;;;;5096576;28;20522;-75
2022/12/29 06:20:53;;;;;;;5.68;1.85;;;10.40;99.90;;;;;;5079535;28;20095;-76
2022/12/29 06:23:18;;;;;;;6.38;1.70;;;10.50;99.90;;;;;;5079276;28;20047;-78
2022/12/29 06:25:46;;;;;;;7.70;2.08;;;10.50;99.90;;;;;;5079541;28;20050;-75
2022/12/29 06:28:12;;;;;;;5.15;1.38;;;10.40;99.90;;;;;;5079129;28;20368;-76
2022/12/29 06:30:38;;;;;;;9.18;1.92;;;10.40;99.90;;;;;;5096139;28;20046;-79
2022/12/29 06:33:04;;;;;;;4.70;1.08;;;10.40;99.90;;;;;;5095763;28;20051;-76
2022/12/29 06:35:29;;;;;;;5.68;1.42;;;10.50;99.90;;;;;;5096268;28;20048;-76
2022/12/29 06:37:55;;;;;;;4.65;1.95;;;10.50;99.90;;;;;;5079300;28;20054;-76
2022/12/29 06:40:21;;;;;;;9.50;1.88;;;10.40;99.90;;;;;;5095741;28;20048;-76
2022/12/29 06:42:47;;;;;;;4.78;1.30;;;10.40;99.90;;;;;;5078820;28;20048;-77
2022/12/29 06:45:12;;;;;;;7.20;1.73;;;10.50;99.90;;;;;;5078796;28;20043;-77
2022/12/29 06:47:38;;;;;;;5.88;1.73;;;10.60;99.90;;;;;;5078985;28;20044;-78
2022/12/29 06:50:05;;;;;;;8.27;1.73;;;10.50;99.90;;;;;;5095814;28;20399;-79
2022/12/29 06:52:30;;;;;;;7.65;1.20;;;10.50;99.90;;;;;;5095571;28;20051;-76
2022/12/29 06:54:56;;;;;;;6.07;1.40;;;10.50;99.90;;;;;;5095867;28;20052;-76
2022/12/29 06:57:22;;;;;;;10.30;1.88;;;10.40;99.90;;;;;;5095800;28;20088;-82
2022/12/29 06:59:47;;;;;;;8.35;1.50;;;10.50;99.90;;;;;;5064684;22;20566;-79
2022/12/29 07:02:14;;;;;;;4.03;1.30;;;10.50;99.90;;;;;;4982147;28;20080;-77
2022/12/29 07:04:40;;;;;;;7.85;1.75;;;10.40;99.90;;;;;;4981876;28;20046;-79
2022/12/29 07:07:06;;;;;;;6.57;1.70;;;10.40;99.90;;;;;;4996928;28;20544;-78
2022/12/29 07:09:32;;;;;;;11.15;3.40;;;10.40;99.90;;;;;;4981135;28;20084;-78
2022/12/29 07:11:58;;;;;;;11.40;2.72;;;10.30;99.90;;;;;;5001626;28;20489;-78
2022/12/29 07:14:24;;;;;;;14.55;5.00;;;10.30;99.90;;;;;;5014514;28;20068;-83
2022/12/29 07:16:50;;;;;;;18.80;5.70;;;10.20;99.90;;;;;;5009000;28;20470;-80
2022/12/29 07:19:15;;;;;;;16.67;4.85;;;10.20;99.90;;;;;;5031046;28;20132;-78
2022/12/29 07:21:41;;;;;;;15.02;4.53;;;10.20;99.90;;;;;;5047659;28;20038;-80
2022/12/29 07:24:08;;;;;;;11.93;2.25;;;10.10;99.90;;;;;;5013224;28;20046;-82
2022/12/29 07:26:36;;;;;;;7.85;1.85;;;10.10;99.90;;;;;;4980274;28;20053;-79
2022/12/29 07:29:04;;;;;;;6.70;1.65;;;10.20;99.90;;;;;;5028588;28;20077;-81
2022/12/29 07:31:31;;;;;;;13.40;2.15;;;10.20;99.90;;;;;;5011895;28;20108;-81
2022/12/29 07:33:56;;;;;;;11.20;2.20;;;10.30;99.90;;;;;;5045039;28;20474;-78
2022/12/29 07:36:22;;;;;;;5.97;1.48;;;10.30;99.90;;;;;;4979766;28;20140;-83
2022/12/29 07:38:48;;;;;;;11.18;1.80;;;10.30;99.90;;;;;;5012236;28;20049;-79
2022/12/29 07:41:14;;;;;;;8.52;1.40;;;10.30;99.90;;;;;;5012008;28;20049;-82
2022/12/29 07:43:40;;;;;;;10.05;1.85;;;10.30;99.90;;;;;;5028952;28;20057;-79
2022/12/29 07:46:06;;;;;;;6.05;1.60;;;10.30;99.90;;;;;;5011942;28;20046;-79
2022/12/29 07:48:35;;;;;;;11.18;1.60;;;10.40;99.90;;;;;;5010649;28;20342;-80
2022/12/29 07:51:01;;;;;;;7.15;1.60;;;10.40;99.90;;;;;;5012966;28;20088;-81
2022/12/29 07:53:27;;;;;;;9.68;2.38;;;10.40;99.90;;;;;;5014047;28;20042;-80
2022/12/29 07:55:53;;;;;;;6.45;1.50;;;10.40;99.90;;;;;;4982374;28;20050;-82
2022/12/29 07:58:19;;;;;;;9.07;1.90;;;10.40;99.90;;;;;;4997764;28;20478;-81
2022/12/29 08:00:45;;;;;;;8.75;1.67;;;10.30;99.90;;;;;;5014872;28;20046;-83
2022/12/29 08:03:10;;;;;;;15.45;1.80;;;10.40;99.90;;;;;;5014793;28;20516;-85
2022/12/29 08:05:36;;;;;;;4.65;1.30;;;10.50;99.90;;;;;;5014337;28;20439;-78
2022/12/29 08:08:03;;;;;;;11.60;1.63;;;10.60;99.90;;;;;;5014119;28;20046;-84
2022/12/29 08:10:28;;;;;;;10.13;1.60;;;10.50;99.90;;;;;;5014347;28;20149;-80
2022/12/29 08:12:54;;;;;;;6.45;1.50;;;10.50;99.90;;;;;;4998607;28;20081;-78
2022/12/29 08:15:20;;;;;;;9.18;1.73;;;10.50;99.90;;;;;;4998000;28;20068;-83
2022/12/29 08:17:46;;;;;;;14.65;1.90;;;10.60;99.90;;;;;;5033705;28;20494;-84
2022/12/29 08:20:12;;;;;;;5.47;1.40;;;10.60;99.90;;;;;;4985843;28;20046;-78
2022/12/29 08:22:37;;;;;;;6.43;1.33;;;10.60;99.90;;;;;;4983031;28;20054;-83
2022/12/29 08:25:04;;;;;;;8.23;1.67;;;10.60;99.90;;;;;;4983961;28;20041;-81
2022/12/29 08:27:30;;;;;;;6.65;1.67;;;10.60;99.90;;;;;;5015967;28;20046;-82
2022/12/29 08:29:56;;;;;;;4.60;1.20;;;10.60;99.90;;;;;;5016119;28;20127;-82
2022/12/29 08:32:22;;;;;;;6.72;1.38;;;10.70;99.90;;;;;;5016255;28;20041;-81
2022/12/29 08:34:47;;;;;;;5.30;1.35;;;10.60;99.90;;;;;;5016883;28;20546;-85
2022/12/29 08:37:13;;;;;;;5.93;1.00;;;10.70;99.90;;;;;;5003546;28;20048;-80
2022/12/29 08:39:39;;;;;;;6.63;1.50;;;10.70;99.90;;;;;;5015679;28;20042;-79
2022/12/29 08:42:06;;;;;;;13.23;1.95;;;10.60;99.90;;;;;;5018147;28;20049;-84
2022/12/29 08:44:31;;;;;;;6.82;1.23;;;10.60;99.90;;;;;;4984713;28;20045;-83
2022/12/29 08:46:57;;;;;;;6.13;1.30;;;10.60;99.90;;;;;;5015903;28;20063;-80
2022/12/29 08:49:23;;;;;;;7.82;2.42;;;10.60;99.90;;;;;;4999769;28;20052;-78
2022/12/29 08:51:49;;;;;;;8.68;1.67;;;10.60;99.90;;;;;;4982885;28;20099;-79
2022/12/29 08:54:15;;;;;;;14.75;1.52;;;10.60;99.90;;;;;;4983350;28;20041;-81
2022/12/29 08:56:40;;;;;;;13.13;1.98;;;10.50;99.90;;;;;;4999838;28;20537;-81
2022/12/29 08:59:06;;;;;;;10.55;1.90;;;10.50;99.90;;;;;;5015559;28;20046;-78
2022/12/29 09:01:35;;;;;;;11.15;1.63;;;10.50;99.90;;;;;;5047557;28;20054;-78
2022/12/29 09:04:00;;;;;;;9.70;1.60;;;10.50;99.90;;;;;;4998027;28;20076;-82
2022/12/29 09:06:27;;;;;;;12.95;2.45;;;10.50;99.90;;;;;;4998345;28;20141;-82
2022/12/29 09:08:54;;;;;;;8.48;1.50;;;10.50;99.90;;;;;;5047145;28;20064;-81
2022/12/29 09:11:23;;;;;;;8.57;1.58;;;10.60;99.90;;;;;;4998452;28;20241;-79
2022/12/29 09:13:49;;;;;;;8.32;1.80;;;10.60;99.90;;;;;;5031689;28;20132;-80
2022/12/29 09:16:16;;;;;;;12.73;1.73;;;10.70;99.90;;;;;;5048004;28;20049;-80
2022/12/29 09:18:43;;;;;;;9.15;1.30;;;10.70;99.90;;;;;;4998460;28;20041;-82
2022/12/29 09:21:10;;;;;;;7.65;1.63;;;10.60;99.90;;;;;;5013781;28;20056;-81
2022/12/29 09:23:37;;;;;;;3.75;1.10;;;10.60;99.90;;;;;;5011239;28;20562;-82
2022/12/29 09:26:03;;;;;;;15.05;2.40;;;10.60;99.90;;;;;;4995164;28;20128;-80
2022/12/29 09:28:29;;;;;;;6.60;1.42;;;10.60;99.90;;;;;;4994174;28;20038;-81
2022/12/29 09:30:56;;;;;;;8.02;1.38;;;10.60;99.90;;;;;;4995021;28;20053;-77
2022/12/29 09:33:22;;;;;;;9.98;2.15;;;10.70;99.90;;;;;;5026117;28;20042;-80
2022/12/29 09:35:54;;;;;;;11.00;2.03;;;10.60;99.90;;;;;;5014532;28;20046;-81
2022/12/29 09:38:20;;;;;;;8.55;1.60;;;10.60;99.90;;;;;;5046235;28;20099;-79
2022/12/29 09:40:52;;;;;;;15.82;1.98;;;10.50;99.90;;;;;;5047221;28;20084;-82
2022/12/29 09:43:24;;;;;;;9.95;2.33;;;10.30;99.90;;;;;;5030899;28;20610;-81
2022/12/29 09:46:28;;;;;;;10.68;1.80;;;10.20;99.90;;;;;;5014026;28;20525;-79
2022/12/29 09:49:15;;;;;;;67.22;26.38;;;9.90;99.90;;;;;;4973306;28;20043;-78
2022/12/29 09:51:45;;;;;;;12.68;3.17;;;9.70;99.90;;;;;;4634756;28;10001528;-81
2022/12/29 09:54:32;;;;;;;23.15;3.58;;;9.70;99.90;;;;;;5026276;28;20042;-81
2022/12/29 09:56:58;;;;;;;13.40;2.00;;;9.70;99.90;;;;;;4994368;28;20089;-79
2022/12/29 09:59:36;;;;;;;10.30;1.85;;;9.70;99.90;;;;;;4993674;28;20062;-79
2022/12/29 10:02:16;;;;;;;9.63;1.63;;;9.80;99.90;;;;;;5012263;28;20054;-81
2022/12/29 10:04:43;;;;;;;7.63;2.03;;;9.90;99.90;;;;;;5013507;28;20042;-77
2022/12/29 10:07:42;;;;;;;8.80;1.58;;;9.90;99.90;;;;;;5030120;28;20387;-78
2022/12/29 10:10:14;;;;;;;10.55;2.15;;;10.00;99.90;;;;;;4997520;28;20042;-78
2022/12/29 10:13:01;;;;;;;8.45;1.60;;;10.00;99.90;;;;;;4993906;28;20046;-79
2022/12/29 10:15:42;;;;;;;10.95;2.05;;;10.00;99.90;;;;;;4994151;28;20046;-79
2022/12/29 10:18:30;;;;;;;8.40;1.67;;;10.00;99.90;;;;;;4993821;28;20149;-80
2022/12/29 10:21:07;;;;;;;10.18;1.58;;;9.90;99.90;;;;;;4993433;28;20466;-81
2022/12/29 10:23:43;;;;;;;6.70;1.63;;;9.90;99.90;;;;;;4994069;28;20049;-80
2022/12/29 10:26:23;;;;;;;9.18;1.40;;;9.90;99.90;;;;;;5026977;28;20046;-81
2022/12/29 10:28:52;;;;;;;10.73;1.90;;;9.90;99.90;;;;;;4993351;28;20108;-79
2022/12/29 10:31:32;;;;;;;8.20;1.40;;;10.00;99.90;;;;;;5011248;28;20106;-81
2022/12/29 10:34:03;;;;;;;7.28;1.30;;;10.00;99.90;;;;;;5028300;28;20129;-78
2022/12/29 10:36:35;;;;;;;6.38;1.30;;;10.00;99.90;;;;;;5014116;28;20085;-79
2022/12/29 10:39:30;;;;;;;10.43;1.60;;;10.00;99.90;;;;;;5014571;28;20054;-80
2022/12/29 10:42:10;;;;;;;9.27;1.70;;;9.90;99.90;;;;;;5015224;28;20046;-84
2022/12/29 10:44:36;;;;;;;9.03;1.80;;;9.90;99.90;;;;;;5030366;28;20037;-75
2022/12/29 10:47:11;;;;;;;8.70;2.20;;;9.80;99.90;;;;;;4998519;28;20470;-79
2022/12/29 10:49:42;;;;;;;9.55;2.20;;;9.80;99.90;;;;;;5010884;28;20710;-78
2022/12/29 10:52:09;;;;;;;8.40;1.90;;;9.70;99.90;;;;;;4979507;28;20049;-80
2022/12/29 10:55:03;;;;;;;9.13;1.73;;;9.70;99.90;;;;;;4978867;28;20038;-78
2022/12/29 10:57:33;;;;;;;7.90;2.05;;;9.60;99.90;;;;;;5011854;28;20497;-78
2022/12/29 10:59:59;;;;;;;5.73;1.97;;;9.50;99.90;;;;;;4995856;28;20046;-76
2022/12/29 11:02:54;;;;;;;5.75;1.75;;;9.60;99.90;;;;;;5001340;28;20787;-78
2022/12/29 11:05:48;;;;;;;8.27;1.67;;;9.60;99.90;;;;;;5013818;28;20049;-76
2022/12/29 11:08:22;;;;;;;6.75;2.20;;;9.70;99.90;;;;;;5032967;28;20042;-78
2022/12/29 11:11:02;;;;;;;8.77;2.08;;;9.60;99.90;;;;;;5013445;28;20537;-77
2022/12/29 11:13:47;;;;;;;9.35;2.70;;;9.50;99.90;;;;;;5049659;28;20057;-79
2022/12/29 11:16:13;;;;;;;8.25;2.65;;;9.50;99.90;;;;;;5030437;28;20042;-77
2022/12/29 11:18:40;;;;;;;6.57;1.60;;;9.60;99.90;;;;;;5030119;28;20038;-78
2022/12/29 11:21:24;;;;;;;10.45;1.40;;;9.70;99.90;;;;;;5013472;28;20096;-79
2022/12/29 11:24:01;;;;;;;6.80;1.80;;;9.70;99.90;;;;;;5013522;28;20137;-78
2022/12/29 11:26:29;;;;;;;8.65;1.58;;;9.60;99.90;;;;;;5013949;28;20471;-78
2022/12/29 11:29:07;;;;;;;8.57;1.65;;;9.70;99.90;;;;;;5013818;28;20120;-78
2022/12/29 11:31:58;;;;;;;5.20;1.67;;;9.60;99.90;;;;;;4993500;28;20050;-79
2022/12/29 11:34:26;;;;;;;11.82;1.77;;;9.80;99.90;;;;;;4989312;28;20113;-76
2022/12/29 11:36:58;;;;;;;8.63;1.70;;;9.80;99.90;;;;;;4993613;28;20382;-78
2022/12/29 11:39:50;;;;;;;10.75;1.95;;;9.80;99.90;;;;;;4993823;28;20042;-81
2022/12/29 11:42:35;;;;;;;4.72;1.73;;;10.00;99.90;;;;;;4993503;28;20054;-82
2022/12/29 11:45:19;;;;;;;5.45;1.60;;;10.20;99.90;;;;;;5009862;28;20042;-76
2022/12/29 11:47:49;;;;;;;8.20;1.70;;;10.30;99.90;;;;;;4993504;28;20080;-82
2022/12/29 11:50:30;;;;;;;9.02;1.45;;;10.60;99.90;;;;;;4993517;28;20086;-80
2022/12/29 11:53:05;;;;;;;10.70;2.03;;;10.60;99.90;;;;;;5013049;28;20415;-79
2022/12/29 11:55:32;;;;;;;9.65;1.60;;;11.00;99.90;;;;;;4998513;28;20435;-78
2022/12/29 11:58:02;;;;;;;8.63;1.40;;;11.10;99.90;;;;;;4981327;28;20423;-80
2022/12/29 12:00:32;;;;;;;8.40;2.03;;;11.30;99.90;;;;;;5013914;28;20050;-81
2022/12/29 12:03:17;;;;;;;16.48;2.15;;;11.20;99.90;;;;;;4997933;28;20049;-80
2022/12/29 12:05:53;;;;;;;9.60;1.90;;;11.20;99.90;;;;;;4997945;28;20471;-77
2022/12/29 12:08:20;;;;;;;10.10;1.75;;;11.30;99.90;;;;;;4998090;28;20085;-78
2022/12/29 12:11:04;;;;;;;9.90;2.22;;;11.10;99.90;;;;;;4998146;28;20068;-79
2022/12/29 12:13:59;;;;;;;9.02;1.58;;;10.90;99.90;;;;;;5014560;28;20141;-78
2022/12/29 12:16:33;;;;;;;11.77;1.80;;;10.70;99.90;;;;;;5014304;28;20038;-79
2022/12/29 12:19:10;;;;;;;19.60;2.50;;;10.70;99.90;;;;;;5014370;28;20053;-79
2022/12/29 12:21:40;;;;;;;11.52;1.80;;;10.80;99.90;;;;;;4998048;28;20042;-80
2022/12/29 12:24:34;;;;;;;14.13;1.95;;;10.80;99.90;;;;;;4997656;28;20046;-79
2022/12/29 12:27:29;;;;;;;15.43;2.50;;;10.60;99.90;;;;;;4997007;28;20042;-78
2022/12/29 12:30:00;;;;;;;12.90;2.45;;;10.70;99.90;;;;;;5011184;28;20394;-79
2022/12/29 12:32:46;;;;;;;11.32;2.42;;;10.80;99.90;;;;;;5011697;28;20084;-81
2022/12/29 12:35:16;;;;;;;15.18;2.70;;;10.80;99.90;;;;;;5011939;28;20094;-80
2022/12/29 12:37:46;;;;;;;13.02;2.45;;;10.70;99.90;;;;;;4979059;28;20034;-79
2022/12/29 12:40:28;;;;;;;14.15;2.88;;;10.60;99.90;;;;;;4995753;28;20430;-78
2022/12/29 12:43:24;;;;;;;9.13;1.95;;;10.50;99.90;;;;;;4667592;28;10000396;-80
2022/12/29 12:46:29;;;;;;;13.23;2.30;;;10.40;99.90;;;;;;5015410;28;20425;-80
2022/12/29 12:49:13;;;;;;;8.27;1.52;;;10.30;99.90;;;;;;5002495;28;20050;-82
2022/12/29 12:51:55;;;;;;;16.02;1.60;;;10.40;99.90;;;;;;5014362;28;20046;-81
2022/12/29 12:54:24;;;;;;;7.72;1.25;;;10.50;99.90;;;;;;5014715;28;20052;-80
2022/12/29 12:57:02;;;;;;;10.95;1.60;;;10.50;99.90;;;;;;4998710;28;20042;-81
2022/12/29 12:59:51;;;;;;;14.43;2.15;;;10.70;99.90;;;;;;5014082;28;20498;-79
2022/12/29 13:02:46;;;;;;;10.38;1.38;;;10.90;99.90;;;;;;5014521;28;20497;-81
2022/12/29 13:05:30;;;;;;;10.82;2.13;;;11.10;99.90;;;;;;5030414;28;20140;-77
2022/12/29 13:08:32;;;;;;;9.45;2.72;;;11.50;99.90;;;;;;5014082;28;20049;-77
2022/12/29 13:11:23;;;;;;;7.65;1.77;;;11.70;99.90;;;;;;5014437;28;20069;-82
2022/12/29 13:14:13;;;;;;;11.90;1.50;;;11.80;99.90;;;;;;5014543;28;20383;-79
2022/12/29 13:16:42;;;;;;;9.93;1.50;;;11.70;99.90;;;;;;5013998;28;20091;-78
2022/12/29 13:19:36;;;;;;;12.93;2.20;;;11.70;99.90;;;;;;5016386;28;20052;-76
2022/12/29 13:22:32;;;;;;;9.13;1.98;;;11.60;99.90;;;;;;5016700;28;20490;-77
2022/12/29 13:25:17;;;;;;;12.38;1.60;;;11.40;99.90;;;;;;4991744;28;20046;-78
2022/12/29 13:28:19;;;;;;;10.93;2.00;;;11.40;99.90;;;;;;5016190;28;20041;-78
2022/12/29 13:31:14;;;;;;;10.57;1.30;;;11.20;99.90;;;;;;5014663;28;20407;-78
2022/12/29 13:34:31;;;;;;;18.45;2.17;;;11.10;99.90;;;;;;4995967;28;20045;-76
2022/12/29 13:37:20;;;;;;;8.98;1.95;;;11.10;99.90;;;;;;4939884;28;20569;-78
2022/12/29 13:39:52;;;;;;;12.77;1.63;;;10.90;99.90;;;;;;4955823;28;20507;-79
2022/12/29 13:42:19;;;;;;;13.50;1.85;;;10.70;99.90;;;;;;4982179;28;20096;-79
2022/12/29 13:44:48;;;;;;;8.05;1.48;;;10.50;99.90;;;;;;5013420;28;20069;-77